KPSM/PSM METAR and TAF weather

Enter ICAO airport designator
Station Type Date Time Source
KPSM METAR 2020/04/07 04:56 UTC NOAA

KPSM 070456Z 25006KT 10SM OVC250 04/M02 A2987 RMK AO2A SLP118 T00411019 401620020


Station Type Date Time Source
KPSM Decoded METAR 2020/04/07 04:56 UTC NOAA

Pease Air Force Base / Portsmouth, NH, United States (KPSM) 43-05N 070-49W
Apr 07, 2020 - 12:56 AM EDT / 2020.04.07 0456 UTC
Wind: from the WSW (250 degrees) at 7 MPH (6 KT):0
Visibility: 10 mile(s):0
Sky conditions: overcast
Temperature: 39.4 F (4.1 C)
Dew Point: 28.6 F (-1.9 C)
Relative Humidity: 64%
Pressure (altimeter): 29.87 in. Hg (1011 hPa)
ob: KPSM 070456Z 25006KT 10SM OVC250 04/M02 A2987 RMK AO2A SLP118 T00411019 401620020
cycle: 5

Station Type Date Time Source
KPSM TAF 2020/04/07 06:42 UTC NOAA

TAF KPSM 070540Z 0706/0806 30006KT P6SM FEW250
FM071900 20008KT P6SM FEW090
FM072100 14008KT P6SM FEW080
FM080100 00000KT P6SM SCT080

Example: see airport list